sensor_id;sensor_type;location;lat;lon;timestamp;P1;durP1;ratioP1;P2;durP2;ratioP2
64225;SDS011;50545;56.064;26.178;2023-04-25T00:00:19;4.05;;;2.22;;
64225;SDS011;50545;56.064;26.178;2023-04-25T00:02:46;2.67;;;1.98;;
64225;SDS011;50545;56.064;26.178;2023-04-25T00:05:13;3.47;;;2.28;;
64225;SDS011;50545;56.064;26.178;2023-04-25T00:07:42;5.00;;;2.15;;
64225;SDS011;50545;56.064;26.178;2023-04-25T00:10:09;4.85;;;2.38;;
64225;SDS011;50545;56.064;26.178;2023-04-25T00:12:39;3.88;;;2.47;;
64225;SDS011;50545;56.064;26.178;2023-04-25T00:15:07;4.38;;;2.45;;
64225;SDS011;50545;56.064;26.178;2023-04-25T00:17:36;4.65;;;2.50;;
64225;SDS011;50545;56.064;26.178;2023-04-25T00:20:05;3.83;;;2.35;;
64225;SDS011;50545;56.064;26.178;2023-04-25T00:22:35;2.92;;;2.17;;
64225;SDS011;50545;56.064;26.178;2023-04-25T00:25:06;4.47;;;2.58;;
64225;SDS011;50545;56.064;26.178;2023-04-25T00:27:33;3.42;;;2.38;;
64225;SDS011;50545;56.064;26.178;2023-04-25T00:30:01;3.47;;;2.25;;
64225;SDS011;50545;56.064;26.178;2023-04-25T00:32:29;5.28;;;2.67;;
64225;SDS011;50545;56.064;26.178;2023-04-25T00:34:56;3.67;;;2.20;;
64225;SDS011;50545;56.064;26.178;2023-04-25T00:37:24;6.93;;;2.53;;
64225;SDS011;50545;56.064;26.178;2023-04-25T00:39:51;3.47;;;2.15;;
64225;SDS011;50545;56.064;26.178;2023-04-25T00:42:21;4.43;;;2.45;;
64225;SDS011;50545;56.064;26.178;2023-04-25T00:44:48;3.00;;;1.92;;
64225;SDS011;50545;56.064;26.178;2023-04-25T00:47:16;3.65;;;2.45;;
64225;SDS011;50545;56.064;26.178;2023-04-25T00:49:43;3.25;;;2.13;;
64225;SDS011;50545;56.064;26.178;2023-04-25T00:52:11;4.15;;;2.47;;
64225;SDS011;50545;56.064;26.178;2023-04-25T00:54:38;3.05;;;2.30;;
64225;SDS011;50545;56.064;26.178;2023-04-25T00:57:06;3.30;;;2.05;;
64225;SDS011;50545;56.064;26.178;2023-04-25T00:59:33;3.28;;;2.13;;
64225;SDS011;50545;56.064;26.178;2023-04-25T01:02:02;4.70;;;2.63;;
64225;SDS011;50545;56.064;26.178;2023-04-25T01:04:30;4.07;;;2.40;;
64225;SDS011;50545;56.064;26.178;2023-04-25T01:06:57;2.97;;;2.08;;
64225;SDS011;50545;56.064;26.178;2023-04-25T01:09:25;4.40;;;2.53;;
64225;SDS011;50545;56.064;26.178;2023-04-25T01:11:52;3.67;;;2.40;;
64225;SDS011;50545;56.064;26.178;2023-04-25T01:14:19;4.05;;;2.50;;
64225;SDS011;50545;56.064;26.178;2023-04-25T01:16:47;5.03;;;2.70;;
64225;SDS011;50545;56.064;26.178;2023-04-25T01:19:16;3.35;;;2.28;;
64225;SDS011;50545;56.064;26.178;2023-04-25T01:21:44;3.63;;;2.05;;
64225;SDS011;50545;56.064;26.178;2023-04-25T01:24:12;2.97;;;2.13;;
64225;SDS011;50545;56.064;26.178;2023-04-25T01:26:40;3.72;;;2.25;;
64225;SDS011;50545;56.064;26.178;2023-04-25T01:29:10;3.75;;;2.45;;
64225;SDS011;50545;56.064;26.178;2023-04-25T01:31:38;3.72;;;2.30;;
64225;SDS011;50545;56.064;26.178;2023-04-25T01:34:05;3.85;;;2.33;;
64225;SDS011;50545;56.064;26.178;2023-04-25T01:36:34;3.80;;;2.25;;
64225;SDS011;50545;56.064;26.178;2023-04-25T01:39:01;3.97;;;2.53;;
64225;SDS011;50545;56.064;26.178;2023-04-25T01:41:29;5.25;;;2.30;;
64225;SDS011;50545;56.064;26.178;2023-04-25T01:43:57;4.03;;;2.17;;
64225;SDS011;50545;56.064;26.178;2023-04-25T01:46:24;3.53;;;2.15;;
64225;SDS011;50545;56.064;26.178;2023-04-25T01:48:53;5.10;;;2.08;;
64225;SDS011;50545;56.064;26.178;2023-04-25T01:51:20;5.38;;;2.47;;
64225;SDS011;50545;56.064;26.178;2023-04-25T01:53:47;3.15;;;2.20;;
64225;SDS011;50545;56.064;26.178;2023-04-25T01:56:17;4.03;;;2.38;;
64225;SDS011;50545;56.064;26.178;2023-04-25T01:58:45;3.38;;;2.30;;
64225;SDS011;50545;56.064;26.178;2023-04-25T02:01:12;3.17;;;2.47;;
64225;SDS011;50545;56.064;26.178;2023-04-25T02:03:39;2.53;;;1.83;;
64225;SDS011;50545;56.064;26.178;2023-04-25T02:06:07;3.38;;;2.42;;
64225;SDS011;50545;56.064;26.178;2023-04-25T02:08:35;4.47;;;2.38;;
64225;SDS011;50545;56.064;26.178;2023-04-25T02:11:03;3.10;;;2.15;;
64225;SDS011;50545;56.064;26.178;2023-04-25T02:13:31;5.18;;;2.50;;
64225;SDS011;50545;56.064;26.178;2023-04-25T02:15:58;3.30;;;2.30;;
64225;SDS011;50545;56.064;26.178;2023-04-25T02:18:25;3.75;;;2.38;;
64225;SDS011;50545;56.064;26.178;2023-04-25T02:20:52;4.43;;;2.53;;
64225;SDS011;50545;56.064;26.178;2023-04-25T02:23:20;4.93;;;2.22;;
64225;SDS011;50545;56.064;26.178;2023-04-25T02:25:47;3.38;;;2.22;;
64225;SDS011;50545;56.064;26.178;2023-04-25T02:28:15;3.13;;;2.42;;
64225;SDS011;50545;56.064;26.178;2023-04-25T02:30:42;3.22;;;2.40;;
64225;SDS011;50545;56.064;26.178;2023-04-25T02:33:09;4.32;;;2.45;;
64225;SDS011;50545;56.064;26.178;2023-04-25T02:35:37;4.38;;;2.67;;
64225;SDS011;50545;56.064;26.178;2023-04-25T02:38:04;3.33;;;2.40;;
64225;SDS011;50545;56.064;26.178;2023-04-25T02:40:31;8.10;;;2.40;;
64225;SDS011;50545;56.064;26.178;2023-04-25T02:42:58;4.13;;;2.33;;
64225;SDS011;50545;56.064;26.178;2023-04-25T02:45:25;4.78;;;2.58;;
64225;SDS011;50545;56.064;26.178;2023-04-25T02:47:53;4.30;;;2.60;;
64225;SDS011;50545;56.064;26.178;2023-04-25T02:50:20;4.90;;;2.40;;
64225;SDS011;50545;56.064;26.178;2023-04-25T02:52:47;3.33;;;2.35;;
64225;SDS011;50545;56.064;26.178;2023-04-25T02:55:15;3.70;;;2.22;;
64225;SDS011;50545;56.064;26.178;2023-04-25T02:57:42;3.78;;;2.50;;
64225;SDS011;50545;56.064;26.178;2023-04-25T03:00:09;4.35;;;2.55;;
64225;SDS011;50545;56.064;26.178;2023-04-25T03:02:38;4.72;;;2.58;;
64225;SDS011;50545;56.064;26.178;2023-04-25T03:05:05;2.97;;;2.10;;
64225;SDS011;50545;56.064;26.178;2023-04-25T03:07:33;3.20;;;2.33;;
64225;SDS011;50545;56.064;26.178;2023-04-25T03:10:01;3.92;;;2.58;;
64225;SDS011;50545;56.064;26.178;2023-04-25T03:12:28;4.18;;;2.58;;
64225;SDS011;50545;56.064;26.178;2023-04-25T03:14:56;4.15;;;2.47;;
64225;SDS011;50545;56.064;26.178;2023-04-25T03:17:23;3.55;;;2.30;;
64225;SDS011;50545;56.064;26.178;2023-04-25T03:19:50;3.30;;;2.17;;
64225;SDS011;50545;56.064;26.178;2023-04-25T03:22:17;4.72;;;2.85;;
64225;SDS011;50545;56.064;26.178;2023-04-25T03:24:44;5.97;;;2.58;;
64225;SDS011;50545;56.064;26.178;2023-04-25T03:27:12;4.63;;;2.63;;
64225;SDS011;50545;56.064;26.178;2023-04-25T03:29:39;6.75;;;2.50;;
64225;SDS011;50545;56.064;26.178;2023-04-25T03:32:06;3.65;;;2.40;;
64225;SDS011;50545;56.064;26.178;2023-04-25T03:34:34;5.22;;;2.60;;
64225;SDS011;50545;56.064;26.178;2023-04-25T03:37:02;5.10;;;2.90;;
64225;SDS011;50545;56.064;26.178;2023-04-25T03:39:29;4.70;;;2.47;;
64225;SDS011;50545;56.064;26.178;2023-04-25T03:41:56;4.20;;;2.50;;
64225;SDS011;50545;56.064;26.178;2023-04-25T03:44:23;4.30;;;2.60;;
64225;SDS011;50545;56.064;26.178;2023-04-25T03:46:51;3.88;;;2.45;;
64225;SDS011;50545;56.064;26.178;2023-04-25T03:49:18;4.65;;;2.72;;
64225;SDS011;50545;56.064;26.178;2023-04-25T03:51:45;4.47;;;2.80;;
64225;SDS011;50545;56.064;26.178;2023-04-25T03:54:12;5.50;;;2.80;;
64225;SDS011;50545;56.064;26.178;2023-04-25T03:56:39;4.45;;;2.90;;
64225;SDS011;50545;56.064;26.178;2023-04-25T03:59:07;3.67;;;2.58;;
64225;SDS011;50545;56.064;26.178;2023-04-25T04:01:34;4.78;;;2.72;;
64225;SDS011;50545;56.064;26.178;2023-04-25T04:04:01;4.47;;;2.47;;
64225;SDS011;50545;56.064;26.178;2023-04-25T04:06:29;4.25;;;2.65;;
64225;SDS011;50545;56.064;26.178;2023-04-25T04:08:56;3.92;;;2.58;;
64225;SDS011;50545;56.064;26.178;2023-04-25T04:11:24;6.40;;;3.00;;
64225;SDS011;50545;56.064;26.178;2023-04-25T04:13:51;3.85;;;2.38;;
64225;SDS011;50545;56.064;26.178;2023-04-25T04:16:18;3.92;;;2.53;;
64225;SDS011;50545;56.064;26.178;2023-04-25T04:18:46;5.13;;;2.65;;
64225;SDS011;50545;56.064;26.178;2023-04-25T04:21:13;4.82;;;2.88;;
64225;SDS011;50545;56.064;26.178;2023-04-25T04:23:41;5.07;;;2.80;;
64225;SDS011;50545;56.064;26.178;2023-04-25T04:26:08;7.80;;;2.78;;
64225;SDS011;50545;56.064;26.178;2023-04-25T04:28:36;5.05;;;3.00;;
64225;SDS011;50545;56.064;26.178;2023-04-25T04:31:04;5.10;;;2.70;;
64225;SDS011;50545;56.064;26.178;2023-04-25T04:33:31;5.65;;;2.85;;
64225;SDS011;50545;56.064;26.178;2023-04-25T04:35:58;4.13;;;2.67;;
64225;SDS011;50545;56.064;26.178;2023-04-25T04:38:26;4.93;;;3.10;;
64225;SDS011;50545;56.064;26.178;2023-04-25T04:40:53;4.60;;;2.63;;
64225;SDS011;50545;56.064;26.178;2023-04-25T04:43:20;4.90;;;2.72;;
64225;SDS011;50545;56.064;26.178;2023-04-25T04:45:49;4.78;;;2.88;;
64225;SDS011;50545;56.064;26.178;2023-04-25T04:48:16;3.92;;;2.60;;
64225;SDS011;50545;56.064;26.178;2023-04-25T04:50:44;4.25;;;2.65;;
64225;SDS011;50545;56.064;26.178;2023-04-25T04:53:14;2.33;;;1.75;;
64225;SDS011;50545;56.064;26.178;2023-04-25T04:55:41;3.72;;;2.55;;
64225;SDS011;50545;56.064;26.178;2023-04-25T04:58:09;4.70;;;2.65;;
64225;SDS011;50545;56.064;26.178;2023-04-25T05:00:36;3.88;;;2.47;;
64225;SDS011;50545;56.064;26.178;2023-04-25T05:03:04;3.45;;;2.42;;
64225;SDS011;50545;56.064;26.178;2023-04-25T05:05:32;3.70;;;2.28;;
64225;SDS011;50545;56.064;26.178;2023-04-25T05:07:59;4.72;;;2.85;;
64225;SDS011;50545;56.064;26.178;2023-04-25T05:10:26;4.20;;;2.55;;
64225;SDS011;50545;56.064;26.178;2023-04-25T05:12:53;5.78;;;2.78;;
64225;SDS011;50545;56.064;26.178;2023-04-25T05:15:21;4.03;;;2.65;;
64225;SDS011;50545;56.064;26.178;2023-04-25T05:17:48;4.22;;;2.50;;
64225;SDS011;50545;56.064;26.178;2023-04-25T05:20:15;5.97;;;2.65;;
64225;SDS011;50545;56.064;26.178;2023-04-25T05:22:42;3.63;;;2.58;;
64225;SDS011;50545;56.064;26.178;2023-04-25T05:25:09;5.82;;;2.50;;
64225;SDS011;50545;56.064;26.178;2023-04-25T05:27:37;4.32;;;2.60;;
64225;SDS011;50545;56.064;26.178;2023-04-25T05:30:04;4.40;;;2.58;;
64225;SDS011;50545;56.064;26.178;2023-04-25T05:32:32;3.53;;;2.42;;
64225;SDS011;50545;56.064;26.178;2023-04-25T05:34:59;4.22;;;2.30;;
64225;SDS011;50545;56.064;26.178;2023-04-25T05:37:26;2.92;;;2.15;;
64225;SDS011;50545;56.064;26.178;2023-04-25T05:39:53;3.92;;;2.45;;
64225;SDS011;50545;56.064;26.178;2023-04-25T05:42:21;5.25;;;2.60;;
64225;SDS011;50545;56.064;26.178;2023-04-25T05:44:48;3.42;;;2.08;;
64225;SDS011;50545;56.064;26.178;2023-04-25T05:47:15;4.07;;;2.40;;
64225;SDS011;50545;56.064;26.178;2023-04-25T05:49:42;4.65;;;2.78;;
64225;SDS011;50545;56.064;26.178;2023-04-25T05:52:09;5.25;;;2.75;;
64225;SDS011;50545;56.064;26.178;2023-04-25T05:54:36;4.72;;;2.42;;
64225;SDS011;50545;56.064;26.178;2023-04-25T05:57:03;4.47;;;2.60;;
64225;SDS011;50545;56.064;26.178;2023-04-25T05:59:30;4.25;;;2.70;;
64225;SDS011;50545;56.064;26.178;2023-04-25T06:01:57;4.05;;;2.58;;
64225;SDS011;50545;56.064;26.178;2023-04-25T06:04:25;3.45;;;2.42;;
64225;SDS011;50545;56.064;26.178;2023-04-25T06:06:52;4.05;;;2.55;;
64225;SDS011;50545;56.064;26.178;2023-04-25T06:09:19;4.47;;;2.60;;
64225;SDS011;50545;56.064;26.178;2023-04-25T06:11:47;5.25;;;2.60;;
64225;SDS011;50545;56.064;26.178;2023-04-25T06:14:14;4.20;;;2.47;;
64225;SDS011;50545;56.064;26.178;2023-04-25T06:16:41;5.72;;;3.00;;
64225;SDS011;50545;56.064;26.178;2023-04-25T06:19:09;5.00;;;2.70;;
64225;SDS011;50545;56.064;26.178;2023-04-25T06:21:36;3.85;;;2.67;;
64225;SDS011;50545;56.064;26.178;2023-04-25T06:24:03;4.10;;;2.90;;
64225;SDS011;50545;56.064;26.178;2023-04-25T06:26:30;3.40;;;2.25;;
64225;SDS011;50545;56.064;26.178;2023-04-25T06:28:58;3.85;;;2.28;;
64225;SDS011;50545;56.064;26.178;2023-04-25T06:31:25;5.32;;;2.55;;
64225;SDS011;50545;56.064;26.178;2023-04-25T06:33:52;3.58;;;2.28;;
64225;SDS011;50545;56.064;26.178;2023-04-25T06:36:21;3.47;;;2.35;;
64225;SDS011;50545;56.064;26.178;2023-04-25T06:38:54;4.00;;;2.28;;
64225;SDS011;50545;56.064;26.178;2023-04-25T06:41:21;5.20;;;2.67;;
64225;SDS011;50545;56.064;26.178;2023-04-25T06:43:48;2.80;;;2.13;;
64225;SDS011;50545;56.064;26.178;2023-04-25T06:46:15;3.78;;;2.22;;
64225;SDS011;50545;56.064;26.178;2023-04-25T06:48:43;2.70;;;2.13;;
64225;SDS011;50545;56.064;26.178;2023-04-25T06:51:10;4.28;;;2.53;;
64225;SDS011;50545;56.064;26.178;2023-04-25T06:53:37;4.63;;;2.65;;
64225;SDS011;50545;56.064;26.178;2023-04-25T06:56:04;4.40;;;2.58;;
64225;SDS011;50545;56.064;26.178;2023-04-25T06:58:31;4.80;;;2.88;;
64225;SDS011;50545;56.064;26.178;2023-04-25T07:00:58;4.60;;;2.40;;
64225;SDS011;50545;56.064;26.178;2023-04-25T07:03:26;2.47;;;1.85;;
64225;SDS011;50545;56.064;26.178;2023-04-25T07:05:53;3.92;;;2.03;;
64225;SDS011;50545;56.064;26.178;2023-04-25T07:08:21;3.75;;;2.25;;
64225;SDS011;50545;56.064;26.178;2023-04-25T07:10:48;4.53;;;2.50;;
64225;SDS011;50545;56.064;26.178;2023-04-25T07:13:15;5.97;;;2.60;;
64225;SDS011;50545;56.064;26.178;2023-04-25T07:15:43;4.90;;;2.88;;
64225;SDS011;50545;56.064;26.178;2023-04-25T07:18:10;4.55;;;2.67;;
64225;SDS011;50545;56.064;26.178;2023-04-25T07:20:38;4.78;;;2.42;;
64225;SDS011;50545;56.064;26.178;2023-04-25T07:23:05;2.95;;;1.98;;
64225;SDS011;50545;56.064;26.178;2023-04-25T07:25:32;3.45;;;2.25;;
64225;SDS011;50545;56.064;26.178;2023-04-25T07:27:59;1.50;;;1.13;;
64225;SDS011;50545;56.064;26.178;2023-04-25T07:30:26;4.65;;;2.00;;
64225;SDS011;50545;56.064;26.178;2023-04-25T07:32:54;3.88;;;2.53;;
64225;SDS011;50545;56.064;26.178;2023-04-25T07:35:22;2.22;;;1.00;;
64225;SDS011;50545;56.064;26.178;2023-04-25T07:37:49;2.65;;;1.70;;
64225;SDS011;50545;56.064;26.178;2023-04-25T07:40:16;3.88;;;2.25;;
64225;SDS011;50545;56.064;26.178;2023-04-25T07:42:44;3.85;;;2.30;;
64225;SDS011;50545;56.064;26.178;2023-04-25T07:45:11;4.93;;;2.05;;
64225;SDS011;50545;56.064;26.178;2023-04-25T07:47:38;2.55;;;1.60;;
64225;SDS011;50545;56.064;26.178;2023-04-25T07:50:06;0.45;;;0.45;;
64225;SDS011;50545;56.064;26.178;2023-04-25T07:52:33;4.15;;;0.82;;
64225;SDS011;50545;56.064;26.178;2023-04-25T07:55:00;1.05;;;0.90;;
64225;SDS011;50545;56.064;26.178;2023-04-25T07:57:28;4.13;;;2.40;;
64225;SDS011;50545;56.064;26.178;2023-04-25T07:59:55;3.65;;;2.13;;
64225;SDS011;50545;56.064;26.178;2023-04-25T08:02:23;2.08;;;1.67;;
64225;SDS011;50545;56.064;26.178;2023-04-25T08:04:54;2.72;;;1.27;;
64225;SDS011;50545;56.064;26.178;2023-04-25T08:07:22;2.97;;;2.33;;
64225;SDS011;50545;56.064;26.178;2023-04-25T08:09:49;2.15;;;1.75;;
64225;SDS011;50545;56.064;26.178;2023-04-25T08:12:16;2.00;;;1.75;;
64225;SDS011;50545;56.064;26.178;2023-04-25T08:14:43;2.22;;;1.75;;
64225;SDS011;50545;56.064;26.178;2023-04-25T08:17:10;3.53;;;1.80;;
64225;SDS011;50545;56.064;26.178;2023-04-25T08:19:38;4.70;;;2.17;;
64225;SDS011;50545;56.064;26.178;2023-04-25T08:22:05;2.88;;;1.90;;
64225;SDS011;50545;56.064;26.178;2023-04-25T08:24:32;2.50;;;1.58;;
64225;SDS011;50545;56.064;26.178;2023-04-25T08:27:03;3.08;;;2.08;;
64225;SDS011;50545;56.064;26.178;2023-04-25T08:29:30;4.90;;;2.20;;
64225;SDS011;50545;56.064;26.178;2023-04-25T08:31:57;6.50;;;1.77;;
64225;SDS011;50545;56.064;26.178;2023-04-25T08:34:24;1.92;;;1.52;;
64225;SDS011;50545;56.064;26.178;2023-04-25T08:36:52;1.52;;;1.13;;
64225;SDS011;50545;56.064;26.178;2023-04-25T08:39:19;3.53;;;2.00;;
64225;SDS011;50545;56.064;26.178;2023-04-25T08:41:47;2.67;;;2.00;;
64225;SDS011;50545;56.064;26.178;2023-04-25T08:44:14;2.25;;;1.55;;
64225;SDS011;50545;56.064;26.178;2023-04-25T08:46:42;3.75;;;2.15;;
64225;SDS011;50545;56.064;26.178;2023-04-25T08:49:16;2.67;;;1.73;;
64225;SDS011;50545;56.064;26.178;2023-04-25T08:51:45;4.07;;;2.30;;
64225;SDS011;50545;56.064;26.178;2023-04-25T08:54:17;1.67;;;1.30;;
64225;SDS011;50545;56.064;26.178;2023-04-25T08:57:02;4.40;;;2.10;;
64225;SDS011;50545;56.064;26.178;2023-04-25T08:59:31;2.50;;;1.63;;
64225;SDS011;50545;56.064;26.178;2023-04-25T09:01:59;2.38;;;1.95;;
64225;SDS011;50545;56.064;26.178;2023-04-25T09:04:27;2.88;;;2.05;;
64225;SDS011;50545;56.064;26.178;2023-04-25T09:06:59;2.00;;;1.67;;
64225;SDS011;50545;56.064;26.178;2023-04-25T09:09:26;2.28;;;1.48;;
64225;SDS011;50545;56.064;26.178;2023-04-25T09:11:54;1.02;;;0.90;;
64225;SDS011;50545;56.064;26.178;2023-04-25T09:14:22;3.53;;;2.10;;
64225;SDS011;50545;56.064;26.178;2023-04-25T09:19:29;4.65;;;2.65;;
64225;SDS011;50545;56.064;26.178;2023-04-25T09:22:06;3.38;;;2.30;;
64225;SDS011;50545;56.064;26.178;2023-04-25T09:24:34;2.90;;;2.10;;
64225;SDS011;50545;56.064;26.178;2023-04-25T09:27:18;1.27;;;1.17;;
64225;SDS011;50545;56.064;26.178;2023-04-25T09:29:49;2.42;;;1.90;;
64225;SDS011;50545;56.064;26.178;2023-04-25T09:32:24;1.77;;;1.38;;
64225;SDS011;50545;56.064;26.178;2023-04-25T09:34:53;2.67;;;2.10;;
64225;SDS011;50545;56.064;26.178;2023-04-25T09:37:22;2.33;;;1.58;;
64225;SDS011;50545;56.064;26.178;2023-04-25T09:39:53;4.30;;;2.30;;
64225;SDS011;50545;56.064;26.178;2023-04-25T09:42:25;2.50;;;1.77;;
64225;SDS011;50545;56.064;26.178;2023-04-25T09:44:54;2.55;;;1.85;;
64225;SDS011;50545;56.064;26.178;2023-04-25T09:47:23;1.80;;;1.35;;
64225;SDS011;50545;56.064;26.178;2023-04-25T09:49:52;1.80;;;1.50;;
64225;SDS011;50545;56.064;26.178;2023-04-25T09:52:23;2.00;;;1.15;;
64225;SDS011;50545;56.064;26.178;2023-04-25T09:54:51;2.83;;;2.20;;
64225;SDS011;50545;56.064;26.178;2023-04-25T09:57:23;4.40;;;2.33;;
64225;SDS011;50545;56.064;26.178;2023-04-25T09:59:54;4.32;;;2.20;;
64225;SDS011;50545;56.064;26.178;2023-04-25T10:02:23;2.60;;;2.03;;
64225;SDS011;50545;56.064;26.178;2023-04-25T10:04:55;3.03;;;1.88;;
64225;SDS011;50545;56.064;26.178;2023-04-25T10:09:58;3.20;;;2.05;;
64225;SDS011;50545;56.064;26.178;2023-04-25T10:12:28;2.50;;;2.00;;
64225;SDS011;50545;56.064;26.178;2023-04-25T10:14:57;1.92;;;1.55;;
64225;SDS011;50545;56.064;26.178;2023-04-25T10:17:28;3.40;;;2.30;;
64225;SDS011;50545;56.064;26.178;2023-04-25T10:19:55;3.72;;;2.30;;
64225;SDS011;50545;56.064;26.178;2023-04-25T10:22:34;2.10;;;1.38;;
64225;SDS011;50545;56.064;26.178;2023-04-25T10:25:03;2.30;;;1.67;;
64225;SDS011;50545;56.064;26.178;2023-04-25T10:27:32;3.88;;;2.33;;
64225;SDS011;50545;56.064;26.178;2023-04-25T10:30:05;4.00;;;1.67;;
64225;SDS011;50545;56.064;26.178;2023-04-25T10:32:37;1.48;;;1.33;;
64225;SDS011;50545;56.064;26.178;2023-04-25T10:35:11;2.88;;;2.30;;
64225;SDS011;50545;56.064;26.178;2023-04-25T10:37:59;2.47;;;1.95;;
64225;SDS011;50545;56.064;26.178;2023-04-25T10:40:31;4.15;;;2.05;;
64225;SDS011;50545;56.064;26.178;2023-04-25T10:45:58;1.98;;;1.38;;
64225;SDS011;50545;56.064;26.178;2023-04-25T10:48:30;4.38;;;2.83;;
64225;SDS011;50545;56.064;26.178;2023-04-25T10:51:10;3.00;;;2.30;;
64225;SDS011;50545;56.064;26.178;2023-04-25T10:53:38;3.20;;;1.75;;
64225;SDS011;50545;56.064;26.178;2023-04-25T10:56:18;3.00;;;1.85;;
64225;SDS011;50545;56.064;26.178;2023-04-25T10:58:47;3.90;;;2.75;;
64225;SDS011;50545;56.064;26.178;2023-04-25T11:01:21;7.22;;;2.70;;
64225;SDS011;50545;56.064;26.178;2023-04-25T11:03:57;3.13;;;2.20;;
64225;SDS011;50545;56.064;26.178;2023-04-25T11:09:26;2.67;;;1.95;;
64225;SDS011;50545;56.064;26.178;2023-04-25T11:11:54;3.53;;;1.85;;
64225;SDS011;50545;56.064;26.178;2023-04-25T11:14:23;2.85;;;1.77;;
64225;SDS011;50545;56.064;26.178;2023-04-25T11:16:53;2.47;;;1.83;;
64225;SDS011;50545;56.064;26.178;2023-04-25T11:19:44;2.13;;;1.45;;
64225;SDS011;50545;56.064;26.178;2023-04-25T11:22:15;2.70;;;1.90;;
64225;SDS011;50545;56.064;26.178;2023-04-25T11:24:42;5.40;;;2.22;;
64225;SDS011;50545;56.064;26.178;2023-04-25T11:27:10;1.48;;;1.38;;
64225;SDS011;50545;56.064;26.178;2023-04-25T11:29:37;2.08;;;1.58;;
64225;SDS011;50545;56.064;26.178;2023-04-25T11:32:04;1.88;;;1.40;;
64225;SDS011;50545;56.064;26.178;2023-04-25T11:34:32;1.83;;;1.45;;
64225;SDS011;50545;56.064;26.178;2023-04-25T11:37:01;1.73;;;1.33;;
64225;SDS011;50545;56.064;26.178;2023-04-25T11:39:29;0.93;;;0.90;;
64225;SDS011;50545;56.064;26.178;2023-04-25T11:41:56;2.67;;;1.92;;
64225;SDS011;50545;56.064;26.178;2023-04-25T11:44:25;1.55;;;1.45;;
64225;SDS011;50545;56.064;26.178;2023-04-25T11:46:53;1.33;;;1.23;;
64225;SDS011;50545;56.064;26.178;2023-04-25T11:49:21;2.15;;;1.50;;
64225;SDS011;50545;56.064;26.178;2023-04-25T11:51:48;1.67;;;1.27;;
64225;SDS011;50545;56.064;26.178;2023-04-25T11:54:15;1.77;;;1.63;;
64225;SDS011;50545;56.064;26.178;2023-04-25T11:56:45;2.28;;;1.60;;
64225;SDS011;50545;56.064;26.178;2023-04-25T11:59:13;2.15;;;1.52;;
64225;SDS011;50545;56.064;26.178;2023-04-25T12:06:48;1.83;;;1.40;;
64225;SDS011;50545;56.064;26.178;2023-04-25T12:09:18;4.50;;;2.08;;
64225;SDS011;50545;56.064;26.178;2023-04-25T12:11:48;4.22;;;2.33;;
64225;SDS011;50545;56.064;26.178;2023-04-25T12:16:57;3.25;;;2.00;;
64225;SDS011;50545;56.064;26.178;2023-04-25T12:19:31;1.73;;;1.10;;
64225;SDS011;50545;56.064;26.178;2023-04-25T12:22:01;2.92;;;1.80;;
64225;SDS011;50545;56.064;26.178;2023-04-25T12:24:32;1.02;;;0.98;;
64225;SDS011;50545;56.064;26.178;2023-04-25T12:27:07;1.35;;;0.77;;
64225;SDS011;50545;56.064;26.178;2023-04-25T12:29:36;1.27;;;1.17;;
64225;SDS011;50545;56.064;26.178;2023-04-25T12:32:15;2.33;;;1.98;;
64225;SDS011;50545;56.064;26.178;2023-04-25T12:34:43;2.88;;;2.03;;
64225;SDS011;50545;56.064;26.178;2023-04-25T12:37:11;1.55;;;1.10;;
64225;SDS011;50545;56.064;26.178;2023-04-25T12:39:39;2.17;;;1.63;;
64225;SDS011;50545;56.064;26.178;2023-04-25T12:42:06;3.75;;;1.88;;
64225;SDS011;50545;56.064;26.178;2023-04-25T12:44:39;2.53;;;1.58;;
64225;SDS011;50545;56.064;26.178;2023-04-25T12:47:06;2.97;;;2.17;;
64225;SDS011;50545;56.064;26.178;2023-04-25T12:49:34;2.00;;;1.80;;
64225;SDS011;50545;56.064;26.178;2023-04-25T12:52:01;2.30;;;1.70;;
64225;SDS011;50545;56.064;26.178;2023-04-25T12:54:29;1.67;;;1.45;;
64225;SDS011;50545;56.064;26.178;2023-04-25T12:56:56;2.72;;;2.10;;
64225;SDS011;50545;56.064;26.178;2023-04-25T12:59:24;3.58;;;2.22;;
64225;SDS011;50545;56.064;26.178;2023-04-25T13:01:51;3.45;;;2.10;;
64225;SDS011;50545;56.064;26.178;2023-04-25T13:04:18;3.13;;;2.08;;
64225;SDS011;50545;56.064;26.178;2023-04-25T13:06:47;2.70;;;2.00;;
64225;SDS011;50545;56.064;26.178;2023-04-25T13:09:15;2.33;;;1.88;;
64225;SDS011;50545;56.064;26.178;2023-04-25T13:11:42;4.05;;;1.77;;
64225;SDS011;50545;56.064;26.178;2023-04-25T13:14:09;2.50;;;1.75;;
64225;SDS011;50545;56.064;26.178;2023-04-25T13:16:37;3.10;;;2.25;;
64225;SDS011;50545;56.064;26.178;2023-04-25T13:19:04;2.75;;;1.98;;
64225;SDS011;50545;56.064;26.178;2023-04-25T13:21:34;2.93;;;1.90;;
64225;SDS011;50545;56.064;26.178;2023-04-25T13:24:01;2.92;;;2.17;;
64225;SDS011;50545;56.064;26.178;2023-04-25T13:26:28;2.60;;;2.10;;
64225;SDS011;50545;56.064;26.178;2023-04-25T13:28:56;2.85;;;2.08;;
64225;SDS011;50545;56.064;26.178;2023-04-25T13:31:23;2.95;;;2.13;;
64225;SDS011;50545;56.064;26.178;2023-04-25T13:33:51;3.25;;;2.20;;
64225;SDS011;50545;56.064;26.178;2023-04-25T13:36:19;3.10;;;2.35;;
64225;SDS011;50545;56.064;26.178;2023-04-25T13:38:47;3.75;;;2.30;;
64225;SDS011;50545;56.064;26.178;2023-04-25T13:41:15;2.45;;;2.10;;
64225;SDS011;50545;56.064;26.178;2023-04-25T13:43:46;2.80;;;2.20;;
64225;SDS011;50545;56.064;26.178;2023-04-25T13:46:15;3.35;;;2.15;;
64225;SDS011;50545;56.064;26.178;2023-04-25T13:49:02;3.08;;;1.95;;
64225;SDS011;50545;56.064;26.178;2023-04-25T13:51:38;4.30;;;2.50;;
64225;SDS011;50545;56.064;26.178;2023-04-25T13:54:06;3.40;;;2.20;;
64225;SDS011;50545;56.064;26.178;2023-04-25T13:56:34;3.10;;;2.33;;
64225;SDS011;50545;56.064;26.178;2023-04-25T13:59:01;3.03;;;2.10;;
64225;SDS011;50545;56.064;26.178;2023-04-25T14:01:29;3.35;;;2.30;;
64225;SDS011;50545;56.064;26.178;2023-04-25T14:04:01;3.72;;;2.20;;
64225;SDS011;50545;56.064;26.178;2023-04-25T14:06:31;4.07;;;2.50;;
64225;SDS011;50545;56.064;26.178;2023-04-25T14:08:58;2.50;;;2.00;;
64225;SDS011;50545;56.064;26.178;2023-04-25T14:11:27;3.90;;;2.17;;
64225;SDS011;50545;56.064;26.178;2023-04-25T14:13:54;3.38;;;2.13;;
64225;SDS011;50545;56.064;26.178;2023-04-25T14:16:21;3.15;;;2.40;;
64225;SDS011;50545;56.064;26.178;2023-04-25T14:18:49;2.38;;;1.70;;
64225;SDS011;50545;56.064;26.178;2023-04-25T14:21:17;3.17;;;2.03;;
64225;SDS011;50545;56.064;26.178;2023-04-25T14:23:44;3.13;;;2.20;;
64225;SDS011;50545;56.064;26.178;2023-04-25T14:26:11;3.33;;;2.20;;
64225;SDS011;50545;56.064;26.178;2023-04-25T14:28:39;3.33;;;2.28;;
64225;SDS011;50545;56.064;26.178;2023-04-25T14:31:06;2.75;;;2.20;;
64225;SDS011;50545;56.064;26.178;2023-04-25T14:33:33;4.70;;;2.10;;
64225;SDS011;50545;56.064;26.178;2023-04-25T14:36:02;3.22;;;2.40;;
64225;SDS011;50545;56.064;26.178;2023-04-25T14:38:29;3.90;;;2.30;;
64225;SDS011;50545;56.064;26.178;2023-04-25T14:40:56;4.50;;;2.10;;
64225;SDS011;50545;56.064;26.178;2023-04-25T14:43:23;4.47;;;2.70;;
64225;SDS011;50545;56.064;26.178;2023-04-25T14:45:51;2.95;;;1.92;;
64225;SDS011;50545;56.064;26.178;2023-04-25T14:48:18;2.78;;;1.92;;
64225;SDS011;50545;56.064;26.178;2023-04-25T14:50:46;3.85;;;2.13;;
64225;SDS011;50545;56.064;26.178;2023-04-25T14:53:13;4.55;;;2.67;;
64225;SDS011;50545;56.064;26.178;2023-04-25T14:55:40;4.03;;;2.10;;
64225;SDS011;50545;56.064;26.178;2023-04-25T14:58:08;3.88;;;2.35;;